Time;durP1;ratioP1;P1;durP2;ratioP2;P2;SDS_P1;SDS_P2;PMS_P1;PMS_P2;Temp;Humidity;BMP_temperature;BMP_pressure;BME280_temperature;BME280_humidity;BME280_pressure;Samples;Min_cycle;Max_cycle;Signal;HPM_P1;HPM_P2
2022/04/06 00:02:08;;;;;;;15.87;4.37;;;10.80;93.30;;;;;;5095443;28;20277;-79
2022/04/06 00:04:33;;;;;;;12.80;4.50;;;10.80;93.70;;;;;;5093907;28;20160;-77
2022/04/06 00:07:03;;;;;;;14.00;4.97;;;10.70;93.60;;;;;;5090331;28;20616;-78
2022/04/06 00:09:42;;;;;;;16.53;4.97;;;10.80;93.90;;;;;;5090604;28;20159;-77
2022/04/06 00:12:09;;;;;;;11.93;4.53;;;10.80;93.80;;;;;;5094179;28;20187;-76
2022/04/06 00:14:36;;;;;;;15.03;4.57;;;10.90;93.50;;;;;;5092982;28;20164;-85
2022/04/06 00:17:12;;;;;;;17.07;4.43;;;10.80;93.10;;;;;;5084561;28;20212;-79
2022/04/06 00:19:41;;;;;;;17.87;5.30;;;10.80;93.70;;;;;;5095898;28;20160;-80
2022/04/06 00:22:09;;;;;;;12.47;4.30;;;10.70;93.60;;;;;;5095442;28;20204;-79
2022/04/06 00:24:41;;;;;;;15.00;5.37;;;10.70;93.80;;;;;;5090689;28;20321;-84
2022/04/06 00:27:10;;;;;;;16.90;4.53;;;10.70;94.40;;;;;;5092215;28;20199;-89
2022/04/06 00:29:39;;;;;;;12.37;5.20;;;10.70;94.50;;;;;;5085135;28;20161;-90
2022/04/06 00:32:05;;;;;;;14.00;4.53;;;10.80;93.90;;;;;;5076837;28;20211;-79
2022/04/06 00:37:16;;;;;;;16.30;4.43;;;10.70;94.20;;;;;;5075715;28;20195;-91
2022/04/06 00:39:42;;;;;;;13.17;4.70;;;10.70;94.00;;;;;;5075238;28;20176;-93
2022/04/06 00:42:08;;;;;;;15.57;5.03;;;10.70;94.50;;;;;;5076105;28;20203;-88
2022/04/06 00:44:37;;;;;;;13.97;4.93;;;10.80;94.50;;;;;;5079039;28;20203;-79
2022/04/06 00:47:04;;;;;;;14.67;4.80;;;10.80;94.30;;;;;;5080742;28;20169;-92
2022/04/06 00:49:30;;;;;;;15.07;4.67;;;10.70;94.10;;;;;;5076669;28;20169;-88
2022/04/06 00:51:59;;;;;;;16.90;4.27;;;10.70;93.90;;;;;;5076307;28;20675;-84
2022/04/06 00:54:27;;;;;;;18.47;5.20;;;10.70;93.80;;;;;;5075471;28;20188;-93
2022/04/06 00:56:53;;;;;;;13.47;4.37;;;10.70;93.90;;;;;;5076519;28;20177;-88
2022/04/06 00:59:20;;;;;;;22.77;5.60;;;10.60;94.20;;;;;;5087011;28;20220;-79
2022/04/06 01:01:49;;;;;;;19.63;5.33;;;10.70;94.10;;;;;;5088313;28;20751;-82
2022/04/06 01:04:15;;;;;;;15.10;4.47;;;10.70;94.00;;;;;;5059037;28;20184;-85
2022/04/06 01:06:42;;;;;;;14.63;4.10;;;10.60;94.50;;;;;;5075542;28;20161;-92
2022/04/06 01:09:08;;;;;;;14.93;4.80;;;10.60;94.80;;;;;;5076995;28;20169;-89
2022/04/06 01:11:35;;;;;;;15.60;4.70;;;10.70;94.60;;;;;;5088392;28;20198;-90
2022/04/06 01:14:02;;;;;;;13.80;4.90;;;10.60;94.40;;;;;;5088721;28;20181;-83
2022/04/06 01:16:29;;;;;;;13.03;4.50;;;10.70;94.20;;;;;;5094357;28;20184;-90
2022/04/06 01:18:55;;;;;;;14.03;4.97;;;10.80;93.80;;;;;;5087852;28;20165;-85
2022/04/06 01:21:23;;;;;;;12.93;4.80;;;10.70;93.60;;;;;;5087600;28;20206;-80
2022/04/06 01:23:49;;;;;;;14.30;5.23;;;10.70;93.40;;;;;;5089200;28;20172;-91
2022/04/06 01:26:14;;;;;;;12.97;4.87;;;10.80;92.70;;;;;;5093102;28;20188;-76
2022/04/06 01:28:41;;;;;;;16.90;4.87;;;10.70;92.70;;;;;;5095804;28;20177;-78
2022/04/06 01:31:07;;;;;;;13.90;4.57;;;10.80;92.80;;;;;;5079542;28;20257;-79
2022/04/06 01:33:33;;;;;;;15.40;4.90;;;10.70;93.60;;;;;;5094511;28;20160;-79
2022/04/06 01:36:00;;;;;;;11.50;4.37;;;10.80;93.00;;;;;;5095381;28;20153;-78
2022/04/06 01:38:42;;;;;;;16.50;4.57;;;10.70;92.80;;;;;;5097144;28;20617;-76
2022/04/06 01:41:11;;;;;;;14.07;4.20;;;10.70;92.40;;;;;;5096632;28;20165;-76
2022/04/06 01:43:37;;;;;;;12.57;4.43;;;10.70;92.90;;;;;;5097539;28;20184;-77
2022/04/06 01:46:03;;;;;;;14.97;4.03;;;10.70;92.50;;;;;;5092787;28;20613;-90
2022/04/06 01:54:48;;;;;;;14.53;4.07;;;10.60;92.50;;;;;;5060151;28;20173;-90
2022/04/06 01:57:17;;;;;;;12.13;4.27;;;10.60;92.00;;;;;;5076929;28;20221;-80
2022/04/06 01:59:44;;;;;;;14.47;3.97;;;10.60;92.30;;;;;;5076218;28;20213;-92
2022/04/06 02:02:56;;;;;;;14.57;4.63;;;10.60;92.80;;;;;;5086490;28;20218;-93
2022/04/06 02:05:24;;;;;;;15.70;4.30;;;10.70;92.40;;;;;;5078953;28;20218;-92
2022/04/06 02:07:51;;;;;;;13.67;4.97;;;10.60;92.60;;;;;;5079241;28;20161;-92
2022/04/06 02:10:17;;;;;;;14.33;4.60;;;10.60;92.90;;;;;;5096836;28;20223;-85
2022/04/06 02:12:44;;;;;;;15.30;4.60;;;10.50;93.40;;;;;;5096637;28;20191;-84
2022/04/06 02:15:40;;;;;;;14.57;4.60;;;10.50;93.30;;;;;;5080525;28;20156;-91
2022/04/06 02:18:06;;;;;;;12.33;4.40;;;10.60;92.70;;;;;;5077705;28;20191;-92
2022/04/06 02:20:33;;;;;;;13.63;4.60;;;10.60;92.60;;;;;;5077084;28;20169;-93
2022/04/06 02:22:58;;;;;;;15.20;4.40;;;10.60;92.30;;;;;;5076823;28;20212;-87
2022/04/06 02:25:24;;;;;;;14.57;4.87;;;10.50;92.80;;;;;;5088812;28;20173;-90
2022/04/06 02:27:52;;;;;;;15.37;4.80;;;10.50;93.10;;;;;;5085477;28;20176;-92
2022/04/06 02:30:19;;;;;;;11.93;4.50;;;10.50;93.30;;;;;;5078351;28;20310;-82
2022/04/06 02:32:46;;;;;;;11.87;3.80;;;10.50;93.10;;;;;;5088504;28;20181;-83
2022/04/06 02:35:12;;;;;;;12.27;4.00;;;10.60;92.40;;;;;;5095792;28;20176;-85
2022/04/06 02:37:41;;;;;;;14.77;4.00;;;10.50;92.80;;;;;;5078099;28;20548;-77
2022/04/06 02:40:11;;;;;;;11.60;4.03;;;10.60;92.10;;;;;;5079575;28;20168;-89
2022/04/06 02:42:36;;;;;;;11.93;3.70;;;10.60;91.90;;;;;;5080547;28;20223;-78
2022/04/06 02:45:08;;;;;;;12.67;3.93;;;10.40;92.40;;;;;;5089676;28;20161;-78
2022/04/06 02:47:34;;;;;;;11.70;3.87;;;10.40;92.90;;;;;;5078808;28;20172;-76
2022/04/06 02:50:01;;;;;;;13.60;3.90;;;10.40;93.00;;;;;;5089486;28;20239;-89
2022/04/06 02:52:27;;;;;;;11.63;3.83;;;10.40;93.10;;;;;;5084591;28;20160;-90
2022/04/06 02:54:52;;;;;;;15.13;4.03;;;10.30;92.90;;;;;;5076472;28;20171;-91
2022/04/06 02:57:18;;;;;;;11.13;3.97;;;10.30;93.40;;;;;;5080630;28;20188;-86
2022/04/06 02:59:43;;;;;;;12.63;4.57;;;10.30;93.70;;;;;;5092117;28;20175;-85
2022/04/06 03:02:09;;;;;;;8.13;3.63;;;10.40;93.50;;;;;;5078319;28;20212;-80
2022/04/06 03:04:35;;;;;;;13.10;3.97;;;10.30;93.00;;;;;;5039218;28;20257;-77
2022/04/06 03:07:04;;;;;;;13.63;4.37;;;10.40;92.70;;;;;;5056525;28;20177;-86
2022/04/06 03:09:29;;;;;;;12.97;3.83;;;10.40;92.80;;;;;;5058410;28;20223;-78
2022/04/06 03:11:55;;;;;;;10.97;3.77;;;10.60;92.40;;;;;;5070894;28;20193;-77
2022/04/06 03:14:24;;;;;;;10.73;3.67;;;10.40;92.30;;;;;;5065676;28;20176;-91
2022/04/06 03:16:50;;;;;;;8.37;3.60;;;10.40;92.50;;;;;;5061257;28;20184;-92
2022/04/06 03:19:16;;;;;;;11.73;3.93;;;10.60;91.90;;;;;;5064511;28;20203;-89
2022/04/06 03:21:42;;;;;;;10.23;3.70;;;10.50;91.40;;;;;;5066221;28;20298;-78
2022/04/06 03:24:07;;;;;;;9.70;3.47;;;10.40;91.80;;;;;;5059999;28;20161;-82
2022/04/06 03:26:33;;;;;;;9.63;3.60;;;10.40;92.30;;;;;;5062782;28;20177;-91
2022/04/06 03:28:59;;;;;;;10.87;3.23;;;10.30;92.20;;;;;;5064508;28;20183;-81
2022/04/06 03:31:24;;;;;;;11.20;3.67;;;10.30;92.30;;;;;;5068543;28;20180;-84
2022/04/06 03:33:50;;;;;;;9.40;3.30;;;10.30;92.40;;;;;;5080167;28;20251;-78
2022/04/06 03:36:16;;;;;;;9.80;3.67;;;10.40;92.40;;;;;;5076860;28;20164;-77
2022/04/06 03:38:41;;;;;;;12.27;3.73;;;10.30;92.10;;;;;;5077702;28;20214;-90
2022/04/06 03:41:07;;;;;;;14.37;4.10;;;10.30;92.30;;;;;;5077724;28;20172;-90
2022/04/06 03:43:33;;;;;;;17.90;4.60;;;10.50;91.90;;;;;;5089321;28;20196;-90
2022/04/06 03:45:59;;;;;;;10.23;3.67;;;10.40;92.30;;;;;;5083403;28;20515;-92
2022/04/06 03:48:24;;;;;;;8.33;3.27;;;10.30;92.40;;;;;;5078084;28;20168;-90
2022/04/06 03:50:51;;;;;;;10.97;3.53;;;10.40;92.40;;;;;;5089336;28;20164;-77
2022/04/06 03:53:18;;;;;;;12.57;3.80;;;10.40;91.90;;;;;;5092522;28;20172;-76
2022/04/06 03:55:44;;;;;;;11.00;4.33;;;10.30;91.90;;;;;;5092349;28;20187;-77
2022/04/06 03:58:13;;;;;;;11.40;4.13;;;10.30;92.50;;;;;;5067492;28;20176;-91
2022/04/06 04:01:06;;;;;;;8.63;3.60;;;10.40;92.00;;;;;;5078899;28;20160;-80
2022/04/06 04:03:32;;;;;;;9.90;3.40;;;10.30;92.20;;;;;;5047241;28;20260;-90
2022/04/06 04:05:58;;;;;;;8.03;3.30;;;10.30;93.00;;;;;;5064593;28;20165;-89
2022/04/06 04:08:26;;;;;;;14.00;4.50;;;10.30;93.30;;;;;;5047805;28;20228;-77
2022/04/06 04:10:53;;;;;;;11.07;3.40;;;10.30;93.40;;;;;;5074477;28;20149;-77
2022/04/06 04:13:24;;;;;;;11.00;3.97;;;10.30;93.00;;;;;;5070989;28;20236;-77
2022/04/06 04:19:12;;;;;;;10.93;3.93;;;10.30;93.40;;;;;;5057531;28;20171;-91
2022/04/06 04:21:38;;;;;;;9.13;3.50;;;10.10;94.20;;;;;;5064569;28;20240;-76
2022/04/06 04:24:09;;;;;;;11.90;4.17;;;10.20;94.10;;;;;;5054867;28;20172;-76
2022/04/06 04:26:36;;;;;;;8.27;3.57;;;10.10;93.90;;;;;;5074797;28;20185;-80
2022/04/06 04:29:08;;;;;;;9.20;3.47;;;10.20;93.50;;;;;;5069143;28;20196;-76
2022/04/06 04:31:37;;;;;;;11.97;3.67;;;10.20;93.50;;;;;;5045861;28;20161;-87
2022/04/06 04:34:05;;;;;;;10.33;3.77;;;10.10;93.30;;;;;;5057068;28;20196;-93
2022/04/06 04:36:31;;;;;;;12.37;4.03;;;10.10;94.00;;;;;;5057338;28;20177;-92
2022/04/06 04:38:58;;;;;;;11.40;3.60;;;10.10;94.30;;;;;;5056565;28;20297;-90
2022/04/06 04:41:23;;;;;;;8.20;3.47;;;10.00;94.30;;;;;;5057606;28;20169;-90
2022/04/06 04:43:50;;;;;;;8.23;3.57;;;10.10;94.50;;;;;;5057187;28;20560;-92
2022/04/06 04:46:17;;;;;;;11.23;3.90;;;10.10;94.50;;;;;;5060115;28;20161;-87
2022/04/06 04:48:44;;;;;;;9.03;3.87;;;10.10;94.40;;;;;;5061317;28;20165;-90
2022/04/06 04:51:10;;;;;;;9.50;3.63;;;10.10;94.30;;;;;;5046535;28;20177;-88
2022/04/06 04:53:37;;;;;;;10.20;3.90;;;10.00;94.10;;;;;;5066147;28;20161;-79
2022/04/06 04:56:02;;;;;;;9.83;4.10;;;10.00;94.20;;;;;;5078887;28;20564;-80
2022/04/06 04:58:28;;;;;;;13.00;3.73;;;10.00;94.30;;;;;;5071776;28;20629;-88
2022/04/06 05:00:57;;;;;;;7.53;3.33;;;10.10;93.40;;;;;;5063413;28;20166;-91
2022/04/06 05:03:22;;;;;;;9.13;3.97;;;10.10;92.80;;;;;;5048502;28;20593;-89
2022/04/06 05:05:53;;;;;;;10.37;3.80;;;10.00;92.70;;;;;;5094254;28;20159;-87
2022/04/06 05:08:23;;;;;;;10.37;3.97;;;10.10;92.90;;;;;;5097623;28;20161;-76
2022/04/06 05:10:52;;;;;;;8.57;3.70;;;10.10;92.60;;;;;;5064586;28;20191;-76
2022/04/06 05:13:28;;;;;;;11.63;3.63;;;10.00;93.10;;;;;;5078319;28;20188;-76
2022/04/06 05:16:00;;;;;;;12.67;4.30;;;10.00;93.20;;;;;;5079059;28;20194;-80
2022/04/06 05:18:30;;;;;;;7.30;3.33;;;10.10;93.70;;;;;;5082728;28;20161;-82
2022/04/06 05:21:03;;;;;;;9.13;3.43;;;10.10;93.80;;;;;;5080515;28;20191;-86
2022/04/06 05:24:30;;;;;;;9.67;3.73;;;9.90;93.90;;;;;;5060754;28;20207;-85
2022/04/06 05:26:55;;;;;;;8.73;3.33;;;9.90;94.80;;;;;;5078557;28;20183;-82
2022/04/06 05:29:21;;;;;;;9.50;3.50;;;9.80;95.00;;;;;;5078195;28;20176;-88
2022/04/06 05:31:47;;;;;;;9.73;3.40;;;9.70;95.20;;;;;;5078282;28;20172;-86
2022/04/06 05:34:12;;;;;;;9.47;3.50;;;9.60;95.70;;;;;;5091062;28;20176;-77
2022/04/06 05:36:38;;;;;;;9.47;2.70;;;9.70;95.80;;;;;;5094117;28;20191;-80
2022/04/06 05:39:22;;;;;;;9.60;3.83;;;9.70;96.00;;;;;;5084948;28;20172;-90
2022/04/06 05:41:49;;;;;;;8.23;3.20;;;9.70;95.40;;;;;;5080517;28;20165;-86
2022/04/06 05:44:16;;;;;;;9.77;3.27;;;9.80;95.20;;;;;;5082009;28;20172;-87
2022/04/06 05:46:42;;;;;;;6.67;3.30;;;9.90;94.60;;;;;;5085001;28;20248;-90
2022/04/06 05:49:08;;;;;;;7.87;3.00;;;9.80;94.40;;;;;;5074967;28;20180;-78
2022/04/06 05:51:35;;;;;;;8.50;2.80;;;9.80;94.00;;;;;;5083164;28;20687;-90
2022/04/06 05:54:06;;;;;;;16.00;4.27;;;9.90;93.00;;;;;;5092748;28;20160;-79
2022/04/06 05:56:33;;;;;;;8.83;2.97;;;9.90;93.00;;;;;;5091731;28;20165;-77
2022/04/06 05:58:58;;;;;;;10.97;3.27;;;10.00;92.30;;;;;;5092883;28;20165;-76
2022/04/06 06:01:30;;;;;;;6.30;2.20;;;10.20;91.90;;;;;;5092843;28;20202;-84
2022/04/06 06:03:56;;;;;;;7.40;2.60;;;10.10;89.40;;;;;;5073946;28;20205;-90
2022/04/06 06:06:50;;;;;;;5.43;2.50;;;10.00;87.70;;;;;;5064691;28;20165;-79
2022/04/06 06:09:30;;;;;;;8.43;2.40;;;10.10;82.90;;;;;;5058964;28;20272;-76
2022/04/06 06:12:03;;;;;;;8.70;2.23;;;10.10;83.30;;;;;;5058936;28;20181;-86
2022/04/06 06:14:30;;;;;;;5.30;2.13;;;10.10;82.40;;;;;;5061924;28;20208;-77
2022/04/06 06:16:58;;;;;;;8.10;2.40;;;10.00;82.30;;;;;;5067882;28;20224;-80
2022/04/06 06:19:24;;;;;;;6.03;2.10;;;10.10;81.50;;;;;;5063188;28;20169;-77
2022/04/06 06:21:49;;;;;;;7.80;1.87;;;10.20;79.90;;;;;;5064623;28;20219;-78
2022/04/06 06:24:19;;;;;;;7.00;2.40;;;10.20;78.20;;;;;;5063101;28;20189;-88
2022/04/06 06:26:48;;;;;;;4.90;1.93;;;10.20;77.10;;;;;;5063358;28;20694;-77
2022/04/06 06:29:14;;;;;;;5.63;2.10;;;10.20;77.00;;;;;;5068023;28;20165;-80
2022/04/06 06:31:40;;;;;;;6.73;2.20;;;10.30;76.20;;;;;;5064239;28;20172;-87
2022/04/06 06:34:07;;;;;;;10.93;2.43;;;10.30;76.20;;;;;;5081570;28;20180;-86
2022/04/06 06:36:34;;;;;;;7.53;2.63;;;10.20;76.80;;;;;;5061029;28;20177;-84
2022/04/06 06:39:03;;;;;;;7.67;2.37;;;10.20;78.20;;;;;;5084613;28;20172;-79
2022/04/06 06:41:29;;;;;;;7.00;2.10;;;10.20;78.50;;;;;;5092164;28;20167;-80
2022/04/06 06:43:56;;;;;;;10.17;2.63;;;10.40;78.00;;;;;;5094375;28;20207;-79
2022/04/06 06:46:31;;;;;;;7.03;2.20;;;10.30;76.80;;;;;;5087853;28;20233;-77
2022/04/06 06:49:03;;;;;;;6.97;2.30;;;10.40;77.30;;;;;;5090512;28;20179;-77
2022/04/06 06:51:31;;;;;;;4.37;1.97;;;10.30;76.80;;;;;;5095852;28;20151;-92
2022/04/06 06:53:58;;;;;;;9.17;2.20;;;10.40;76.30;;;;;;5089947;28;20175;-81
2022/04/06 06:56:24;;;;;;;9.17;2.87;;;10.40;76.70;;;;;;5091472;28;20168;-77
2022/04/06 06:58:53;;;;;;;10.77;3.07;;;10.40;74.50;;;;;;5085712;28;20175;-91
2022/04/06 07:01:20;;;;;;;12.27;2.87;;;10.40;74.60;;;;;;5077931;28;20243;-91
2022/04/06 07:03:46;;;;;;;9.77;2.73;;;10.40;75.90;;;;;;5076927;28;20193;-92
2022/04/06 07:06:12;;;;;;;14.37;2.90;;;10.50;74.70;;;;;;5077171;28;20191;-77
2022/04/06 07:08:37;;;;;;;8.87;2.50;;;10.50;74.40;;;;;;5076222;28;20575;-89
2022/04/06 07:11:04;;;;;;;6.53;1.90;;;10.40;73.60;;;;;;5076176;28;20164;-83
2022/04/06 07:13:32;;;;;;;6.50;2.30;;;10.40;73.70;;;;;;5077800;28;20189;-92
2022/04/06 07:15:58;;;;;;;3.87;1.90;;;10.50;71.20;;;;;;5085134;28;20163;-79
2022/04/06 07:18:23;;;;;;;8.60;2.07;;;10.50;71.00;;;;;;5068834;28;20176;-77
2022/04/06 07:21:16;;;;;;;7.00;1.80;;;10.40;72.00;;;;;;5064749;28;20655;-90
2022/04/06 07:23:44;;;;;;;7.87;2.23;;;10.40;72.40;;;;;;5076400;28;20546;-91
2022/04/06 07:26:13;;;;;;;8.10;2.60;;;10.40;72.80;;;;;;5076725;28;20701;-80
2022/04/06 07:28:39;;;;;;;7.87;1.90;;;10.50;72.30;;;;;;5076745;28;20172;-76
2022/04/06 07:31:05;;;;;;;9.07;2.50;;;10.40;71.00;;;;;;5076189;28;20168;-89
2022/04/06 07:33:30;;;;;;;9.00;2.07;;;10.50;70.50;;;;;;5083758;28;20198;-81
2022/04/06 07:35:56;;;;;;;5.80;2.23;;;10.60;68.40;;;;;;5085166;28;20169;-91
2022/04/06 07:38:21;;;;;;;9.17;2.43;;;10.60;70.40;;;;;;5081004;28;20176;-87
2022/04/06 07:40:48;;;;;;;7.53;2.37;;;10.50;69.90;;;;;;5077713;28;20187;-85
2022/04/06 07:43:17;;;;;;;7.83;2.53;;;10.50;69.60;;;;;;5058798;28;20204;-76
2022/04/06 07:45:43;;;;;;;9.17;2.23;;;10.50;70.70;;;;;;5079359;28;20222;-81
2022/04/06 07:48:09;;;;;;;9.00;2.20;;;10.50;70.00;;;;;;5059383;28;20180;-82
2022/04/06 07:50:35;;;;;;;8.17;1.80;;;10.60;69.10;;;;;;5085589;28;20619;-85
2022/04/06 07:53:01;;;;;;;5.83;1.80;;;10.60;67.50;;;;;;5083318;28;20207;-78
2022/04/06 07:55:26;;;;;;;7.90;1.90;;;10.60;67.70;;;;;;5081776;28;20192;-94
2022/04/06 07:57:55;;;;;;;11.50;2.70;;;10.60;65.00;;;;;;5061083;28;20297;-91
2022/04/06 08:00:24;;;;;;;9.43;2.00;;;10.60;67.00;;;;;;5077463;28;20206;-79
2022/04/06 08:02:52;;;;;;;6.60;2.13;;;10.70;66.00;;;;;;5078658;28;20334;-88
2022/04/06 08:05:18;;;;;;;5.90;1.60;;;10.70;66.80;;;;;;5060041;28;20203;-93
2022/04/06 08:07:48;;;;;;;7.70;2.10;;;10.70;67.00;;;;;;5057865;28;20172;-77
2022/04/06 08:10:16;;;;;;;5.87;2.07;;;10.70;67.10;;;;;;5057983;28;20169;-86
2022/04/06 08:12:42;;;;;;;6.87;2.00;;;10.70;65.30;;;;;;5065790;28;20239;-84
2022/04/06 08:15:10;;;;;;;5.20;1.83;;;10.80;64.00;;;;;;5028419;28;20180;-88
2022/04/06 08:17:38;;;;;;;7.23;1.70;;;10.70;65.40;;;;;;5058960;28;20189;-89
2022/04/06 08:20:05;;;;;;;5.93;1.93;;;10.90;63.40;;;;;;5076586;28;20172;-77
2022/04/06 08:22:31;;;;;;;6.80;1.77;;;10.90;63.30;;;;;;5082170;28;20215;-90
2022/04/06 08:24:59;;;;;;;7.83;2.20;;;11.00;60.60;;;;;;5087297;28;20176;-91
2022/04/06 08:27:27;;;;;;;8.23;1.80;;;11.00;62.50;;;;;;5083751;28;20184;-79
2022/04/06 08:29:54;;;;;;;5.40;2.20;;;11.10;61.50;;;;;;5095533;28;20676;-77
2022/04/06 08:32:20;;;;;;;8.57;2.20;;;11.10;59.50;;;;;;5088878;28;20172;-91
2022/04/06 08:34:46;;;;;;;6.03;2.37;;;11.10;59.50;;;;;;5080282;28;20168;-84
2022/04/06 08:37:12;;;;;;;5.43;1.63;;;11.10;59.50;;;;;;5081807;28;20190;-80
2022/04/06 08:39:38;;;;;;;5.07;1.80;;;11.20;59.30;;;;;;5084242;28;20168;-93
2022/04/06 08:42:04;;;;;;;5.17;1.90;;;11.30;57.10;;;;;;5096959;28;20219;-76
2022/04/06 08:44:36;;;;;;;10.70;1.97;;;11.20;56.90;;;;;;5092207;28;20168;-83
2022/04/06 08:47:14;;;;;;;6.40;2.10;;;11.20;56.80;;;;;;5085273;28;20165;-84
2022/04/06 08:49:45;;;;;;;6.30;1.93;;;11.20;58.80;;;;;;5086550;28;20183;-78
2022/04/06 08:52:18;;;;;;;5.03;1.77;;;11.30;56.80;;;;;;5082008;28;20172;-92
2022/04/06 08:54:45;;;;;;;7.70;1.83;;;11.40;55.20;;;;;;5078731;28;20237;-92
2022/04/06 08:57:11;;;;;;;6.80;1.87;;;11.40;55.30;;;;;;5079797;28;20172;-78
2022/04/06 08:59:37;;;;;;;4.40;1.90;;;11.40;54.20;;;;;;5091549;28;20177;-82
2022/04/06 09:02:08;;;;;;;8.50;2.23;;;11.40;54.10;;;;;;5093778;28;20260;-76
2022/04/06 09:04:35;;;;;;;7.37;1.80;;;11.50;54.30;;;;;;5073832;28;20184;-78
2022/04/06 09:07:08;;;;;;;5.20;1.83;;;11.50;53.00;;;;;;5068058;28;20240;-91
2022/04/06 09:09:35;;;;;;;7.17;1.93;;;11.50;54.10;;;;;;5062742;28;20161;-92
2022/04/06 09:12:06;;;;;;;9.23;2.37;;;11.50;55.10;;;;;;5060458;28;20189;-81
2022/04/06 09:14:33;;;;;;;7.10;1.87;;;11.60;53.30;;;;;;5060456;28;20215;-85
2022/04/06 09:17:06;;;;;;;6.40;2.43;;;11.60;53.70;;;;;;5060024;28;20158;-85
2022/04/06 09:19:38;;;;;;;6.27;1.73;;;11.80;54.30;;;;;;5058403;28;20200;-77
2022/04/06 09:22:07;;;;;;;5.80;1.90;;;11.80;52.20;;;;;;5059392;28;20284;-81
2022/04/06 09:24:35;;;;;;;9.43;2.10;;;11.70;52.60;;;;;;5057587;28;20263;-89
2022/04/06 09:27:04;;;;;;;6.80;2.47;;;11.60;54.40;;;;;;5057016;28;20195;-82
2022/04/06 09:29:32;;;;;;;5.53;1.90;;;11.70;54.80;;;;;;5058118;28;20224;-90
2022/04/06 09:32:08;;;;;;;5.80;2.30;;;11.80;53.30;;;;;;5058296;28;20165;-77
2022/04/06 09:34:37;;;;;;;5.43;2.60;;;11.80;54.10;;;;;;5071494;28;20190;-90
2022/04/06 09:37:22;;;;;;;4.40;2.20;;;11.90;52.70;;;;;;5089705;28;20179;-77
2022/04/06 09:39:48;;;;;;;5.33;2.57;;;11.80;52.80;;;;;;5065468;28;20200;-85
2022/04/06 09:42:21;;;;;;;4.67;2.37;;;11.80;56.10;;;;;;5070393;28;20211;-78
2022/04/06 09:47:54;;;;;;;6.77;2.40;;;11.60;57.40;;;;;;5094132;28;20168;-85
2022/04/06 09:50:23;;;;;;;3.53;2.27;;;11.60;58.60;;;;;;5092281;28;20172;-88
2022/04/06 09:52:53;;;;;;;6.97;2.77;;;11.70;59.20;;;;;;5092860;28;20164;-78
2022/04/06 09:55:27;;;;;;;4.07;2.30;;;11.60;59.00;;;;;;5094229;28;20164;-77
2022/04/06 09:58:21;;;;;;;7.03;2.70;;;11.60;59.30;;;;;;5094925;28;20184;-77
2022/04/06 10:00:53;;;;;;;6.80;2.67;;;11.70;60.50;;;;;;5091700;28;20157;-78
2022/04/06 10:03:21;;;;;;;6.07;2.47;;;11.60;60.20;;;;;;5092661;28;20192;-82
2022/04/06 10:06:09;;;;;;;6.20;2.90;;;11.80;60.20;;;;;;5080478;28;20258;-81
2022/04/06 10:08:43;;;;;;;4.53;2.53;;;11.90;59.30;;;;;;5062606;28;20184;-82
2022/04/06 10:11:19;;;;;;;5.60;2.40;;;11.80;58.40;;;;;;5082619;28;20259;-88
2022/04/06 10:13:46;;;;;;;7.93;3.53;;;11.80;59.60;;;;;;5077927;28;20182;-94
2022/04/06 10:16:12;;;;;;;6.57;2.47;;;11.80;60.60;;;;;;5095657;28;20168;-75
2022/04/06 10:18:40;;;;;;;4.60;2.67;;;11.80;61.60;;;;;;5086829;28;20172;-79
2022/04/06 10:21:45;;;;;;;7.67;2.70;;;11.80;61.80;;;;;;5082943;28;20214;-81
2022/04/06 10:24:36;;;;;;;6.77;2.57;;;11.60;62.80;;;;;;5078596;28;20536;-88
2022/04/06 10:27:23;;;;;;;7.63;3.03;;;11.60;62.70;;;;;;5085858;28;20187;-83
2022/04/06 10:30:14;;;;;;;6.33;2.60;;;11.60;63.40;;;;;;5095975;28;20157;-77
2022/04/06 10:32:42;;;;;;;8.03;3.03;;;11.60;61.90;;;;;;5085421;28;20631;-77
2022/04/06 10:35:22;;;;;;;8.13;2.87;;;11.70;63.10;;;;;;5088008;28;20216;-78
2022/04/06 10:37:58;;;;;;;5.40;2.60;;;11.60;62.60;;;;;;5088339;28;20160;-79
2022/04/06 10:40:31;;;;;;;5.73;2.97;;;11.60;63.10;;;;;;5083983;28;20168;-85
2022/04/06 10:43:02;;;;;;;5.90;2.70;;;11.60;63.50;;;;;;5078997;28;20202;-86
2022/04/06 10:45:31;;;;;;;4.87;2.57;;;11.60;63.60;;;;;;5087386;28;20171;-77
2022/04/06 10:48:14;;;;;;;5.87;2.97;;;11.60;62.00;;;;;;5086602;28;20172;-78
2022/04/06 10:50:44;;;;;;;7.27;3.20;;;11.70;62.20;;;;;;5084758;28;20168;-77
2022/04/06 10:53:26;;;;;;;4.97;2.40;;;11.80;59.20;;;;;;5060550;28;20176;-87
2022/04/06 10:56:16;;;;;;;5.03;2.63;;;11.90;59.30;;;;;;5078738;28;20159;-79
2022/04/06 10:59:09;;;;;;;5.83;2.93;;;11.80;58.30;;;;;;5081384;28;20179;-79
2022/04/06 11:01:37;;;;;;;6.60;3.17;;;11.90;63.00;;;;;;5077859;28;20184;-93
2022/04/06 11:04:05;;;;;;;4.17;2.40;;;11.90;62.50;;;;;;5079850;28;20192;-81
2022/04/06 11:06:44;;;;;;;7.73;2.67;;;11.90;60.20;;;;;;5079894;28;20168;-76
2022/04/06 11:12:36;;;;;;;10.60;6.80;;;12.00;56.70;;;;;;5065911;28;20194;-78
2022/04/06 11:15:07;;;;;;;7.17;2.60;;;12.00;57.10;;;;;;5069165;28;20186;-77
2022/04/06 11:17:36;;;;;;;4.37;2.40;;;12.10;55.80;;;;;;5067928;28;20179;-91
2022/04/06 11:20:14;;;;;;;6.27;2.70;;;12.10;54.50;;;;;;5067859;28;20200;-85
2022/04/06 11:23:16;;;;;;;8.90;2.77;;;12.10;53.10;;;;;;5086636;28;20257;-77
2022/04/06 11:25:47;;;;;;;5.57;2.40;;;12.00;56.00;;;;;;5084454;28;20175;-85
2022/04/06 11:28:13;;;;;;;6.87;2.70;;;12.00;56.90;;;;;;5081018;28;20176;-93
2022/04/06 11:30:45;;;;;;;4.43;2.40;;;12.10;56.40;;;;;;5081946;28;20168;-82
2022/04/06 11:33:11;;;;;;;4.43;2.80;;;11.90;58.30;;;;;;5079891;28;20651;-79
2022/04/06 11:35:40;;;;;;;5.70;2.93;;;11.90;59.00;;;;;;5065538;28;20169;-87
2022/04/06 11:38:07;;;;;;;5.77;2.53;;;12.00;59.20;;;;;;5058407;28;20176;-89
2022/04/06 11:40:44;;;;;;;4.87;2.57;;;11.90;56.00;;;;;;5060483;28;20164;-86
2022/04/06 11:43:12;;;;;;;6.53;2.80;;;12.00;56.60;;;;;;5060687;28;20196;-85
2022/04/06 11:45:47;;;;;;;5.40;2.50;;;12.00;56.10;;;;;;5061597;28;20302;-90
2022/04/06 11:48:14;;;;;;;7.37;2.60;;;12.10;54.30;;;;;;5066606;28;20172;-77
2022/04/06 11:50:41;;;;;;;7.03;2.67;;;12.10;58.40;;;;;;5069381;28;20180;-77
2022/04/06 11:53:15;;;;;;;5.27;2.73;;;11.90;63.90;;;;;;5071170;28;20168;-77
2022/04/06 11:56:20;;;;;;;5.73;2.40;;;11.90;67.70;;;;;;5067306;28;20157;-78
2022/04/06 11:58:55;;;;;;;4.47;2.50;;;11.70;65.80;;;;;;5061026;28;20278;-81
2022/04/06 12:01:28;;;;;;;7.07;3.00;;;11.80;66.40;;;;;;5067748;28;20178;-77
2022/04/06 12:03:58;;;;;;;5.20;2.93;;;11.70;67.60;;;;;;5083577;28;20231;-82
2022/04/06 12:06:33;;;;;;;5.33;2.93;;;11.70;68.00;;;;;;5068303;28;20173;-80
2022/04/06 12:09:00;;;;;;;5.93;3.13;;;11.60;70.40;;;;;;5062706;28;20322;-79
2022/04/06 12:11:36;;;;;;;5.53;2.90;;;11.60;72.30;;;;;;5062253;28;20157;-92
2022/04/06 12:14:04;;;;;;;6.23;2.80;;;11.60;71.40;;;;;;5066399;28;20153;-94
2022/04/06 12:16:32;;;;;;;5.37;3.00;;;11.60;72.20;;;;;;5072457;28;20181;-92
2022/04/06 12:19:08;;;;;;;5.53;3.23;;;11.50;72.20;;;;;;5066522;28;20271;-85
2022/04/06 12:21:44;;;;;;;7.10;2.97;;;11.50;70.60;;;;;;5058065;28;20168;-83
2022/04/06 12:24:11;;;;;;;5.70;2.90;;;11.60;69.70;;;;;;5057684;28;20231;-89
2022/04/06 12:26:54;;;;;;;6.37;2.70;;;11.50;71.00;;;;;;5058246;28;20652;-86
2022/04/06 12:29:19;;;;;;;7.23;2.90;;;11.50;69.70;;;;;;5068584;28;20145;-84
2022/04/06 12:31:53;;;;;;;10.60;3.33;;;11.60;71.20;;;;;;5068472;28;20589;-81
2022/04/06 12:34:40;;;;;;;3.90;2.60;;;11.70;70.50;;;;;;5076734;28;20240;-92
2022/04/06 12:39:57;;;;;;;7.17;3.10;;;11.70;70.50;;;;;;5083121;28;20237;-88
2022/04/06 12:42:25;;;;;;;3.53;2.20;;;11.90;67.80;;;;;;5064831;28;20192;-84
2022/04/06 12:44:58;;;;;;;5.43;2.70;;;11.80;67.80;;;;;;5053256;28;20169;-76
2022/04/06 12:47:30;;;;;;;5.40;2.83;;;11.70;69.60;;;;;;5085161;28;20232;-79
2022/04/06 12:50:22;;;;;;;6.70;2.97;;;11.60;71.60;;;;;;5081201;28;20161;-80
2022/04/06 12:53:07;;;;;;;5.50;2.67;;;11.70;71.20;;;;;;5079559;28;20156;-82
2022/04/06 12:55:33;;;;;;;5.93;2.80;;;11.70;69.00;;;;;;5082515;28;20160;-81
2022/04/06 12:58:19;;;;;;;5.93;2.80;;;11.70;67.70;;;;;;5079552;28;20184;-79
2022/04/06 13:00:48;;;;;;;5.97;3.27;;;11.70;67.60;;;;;;5066635;28;20242;-88
2022/04/06 13:03:14;;;;;;;4.43;2.70;;;11.80;67.30;;;;;;5081638;28;20195;-89
2022/04/06 13:05:42;;;;;;;6.67;2.90;;;11.70;69.20;;;;;;5045991;28;20183;-81
2022/04/06 13:08:10;;;;;;;7.53;3.13;;;11.80;69.00;;;;;;5067305;28;20180;-81
2022/04/06 13:10:40;;;;;;;8.00;3.00;;;11.90;69.50;;;;;;5085320;28;20163;-78
2022/04/06 13:13:07;;;;;;;6.57;3.23;;;11.90;70.00;;;;;;5084248;28;20195;-78
2022/04/06 13:15:33;;;;;;;5.60;2.47;;;12.10;69.00;;;;;;5086519;28;20164;-79
2022/04/06 13:18:07;;;;;;;4.00;2.67;;;12.10;67.40;;;;;;5085342;28;20160;-78
2022/04/06 13:20:36;;;;;;;3.77;2.50;;;11.90;70.00;;;;;;5082777;28;20195;-89